Brooklyn, IN (46111)

08:50 AM EDT del 19 Aprile 2015 (GMT -0400)
Main St. | | Change Station
CLOSE
Current Station
Stazione meteo personale
Location: Brooklyn, IN
Altitudine: 673 ft
Stazioni meteo nelle vicinanze

Alt. 673 ft 39.54 °N, 86.37 °W | Updated 7 minutes ago

Coperto
Coperto
60.8 °F
Sembra 60.8 °F
N
4.2
Vento Variabile Vento da ESE

Oggi
Massima -- | Minima -- °F
--% Possibilità di precip.
Ieri
Massima -- | Minima -- °F
Precip. -- in
7:02 AM 8:27 PM
Luna nuova, 1% visible
Pressione 29.78 in
Visibilità 10.0 miglia
Nuvole Nubi sparse 12000 ft
Molto nuvoloso 23000 ft
Punto di rugiada 53 °F
Umidità 75%
Piovosità 0.00 in
Spessore del manto nevoso Non disponibile.
Raggi UV 0 fuori da 12
Polline 6.10 fuori da 12
Qualità dell'aria Non disponibile.
Flu Activity Local Activity
METAR KIND 191154Z 08013KT 10SM SCT120 BKN230 16/07 A2979 RMK AO2 SLP082 T01610067 10183 20156 56019

More Conditions Fewer Conditions

Pressione 29.78 in
Visibilità 10.0 miglia
Nuvole Nubi sparse 12000 ft
Molto nuvoloso 23000 ft
Punto di rugiada 53 °F
Umidità 75%
Piovosità 0.00 in
Spessore del manto nevoso Non disponibile.
Raggi UV 0 fuori da 12
Polline 6.10 fuori da 12
Qualità dell'aria Non disponibile.
Flu Activity Local Activity
METAR KIND 191154Z 08013KT 10SM SCT120 BKN230 16/07 A2979 RMK AO2 SLP082 T01610067 10183 20156 56019

More Conditions Fewer Conditions

10-Day Weather Forecast

Almanac

Astronomia

Apr. 19, 2015 Alba Tramonto
Ora attuale
Crepuscolo civile
Crepuscolo nautico
Crepuscolo astronomico
Luna
Estensione della luce visibile
Lunghezza del giorno
Tomorrow will be .
, % of the Moon is Illuminated

Gli estremi di oggi

State Highs State Lows

Community

WunderPhotos

Upload Photos

1,814,775 foto caricate!

WunderBlogs® & News

Nearby

Qualità dell'aria

  Qualità dell'aria Indice AQ Inquinante
Not available.

Profondità neve

Stazione Profondità Altitudine

Attività sismica

Città  Distanza Mag. Data & Ora
Minimo Magnitudo Mostrato è 2.5.

Temperature delle acque costiere

Località Temperatura

Stations

Stazioni meteo nelle vicinanze

Ubicazione della stazione Temp. Raffreddamento del vento Punto di rugiada Umidità Vento Precip. Alt. Aggiornato Tipo